Startpagina
METAR-TAF:

METAR-TAF

Vliegvelden :

Flughafen Dortmund

Dortmund, Duitsland

breedte: 51-31N, lengte: 007-37E, hoogte: 127 m

Actueel weer

Dit bericht is 28 minuten geleden gemaakt, om 15:20 UTC
Wind 4 kt uit het oostnoordoosten
Temperatuur 0°C
Vochtigheid 69%
Druk 1017 hPa
Zicht 10 km of meer
geen wolken onder 1500 m en geen cumulonimbus

METAR: EDLW 201520Z 07004KT CAVOK 00/M05 Q1017

Tijdstip: 16:48 (15:48 UTC)

Verwachting

Dit bericht is 4 uur en het 48 minuten geleden gemaakt, om 11:00 UTC
Verwachting geldig van 20 om 12 UTC tot 21 om 12 UTC
Wind 5 kt uit het oostnoordoosten
Zicht 10 km of meer
geen wolken onder 1500 m en geen cumulonimbus
Wijzigt naar
van 20 om 18 UTC tot 20 om 21 UTC
Wind 3 kt uit variabele richting
Wijzigt naar
van 21 om 07 UTC tot 21 om 10 UTC
Wind 5 kt uit het zuidwesten

TAF: EDLW 201100Z 2012/2112 06005KT CAVOK BECMG 2018/2021 VRB03KT BECMG 2107/2110 22005KT

Waarnemingen en weersverwachtingen van meer dan 4000 vliegvelden (METAR en TAF).

De beschikbare stations zijn de gele en rode punten op de kaart.

Ga met uw muis naar het station om de naam te zien.

Klik dan om waarnemingen en weersverwachtingen te zien.

kaart wijzigen: klik op de groene knoppen met een zwart kruis om in te zoomen, op de groene knop met een streepje om uit te zoomen of op de groene pijlen voor aangrenzende kaarten.


METAR-TAF: